La Esperanza, Honduras

3:26 PM CST on November 26, 2014 (GMT -0600)
Coronel Enrique Soto Cano Air Base | Change Station
CLOSE
Current Station
Airport
Location: Nueva Ocotepeque,
Elevation: 2060 ft
Nearby Weather Stations

Elev 2060 ft 14.38 °N, 87.62 °W | Updated 23 minutes ago

Overcast
Overcast
72 °F
Feels Like 72 °F
N
21
Wind Variable Wind from North
Gusts 26 mph

Today
High -- | Low -- °F
--% Chance of Precip.
Yesterday
High -- | Low -- °F
Precip. -- in
5:58 AM 5:21 PM
Waxing Crescent, 22% visible
Pressure 30.02 in
Visibility 6.2 miles
Clouds Few 2800 ft
Overcast 3900 ft
Dew Point 72 °F
Humidity 100%
Rainfall 0.25 in
Snow Depth Not available.
UV 1 out of 12
Pollen Not available.
Air Quality Not available.
Flu Activity Not available.
METAR MHSC 262103Z AUTO 36018G23KT 9999 FEW028 OVC039 22/22 A3002 RMK AO2

More Conditions Fewer Conditions

Pressure 30.02 in
Visibility 6.2 miles
Clouds Few 2800 ft
Overcast 3900 ft
Dew Point 72 °F
Humidity 100%
Rainfall 0.25 in
Snow Depth Not available.
UV 1 out of 12
Pollen Not available.
Air Quality Not available.
Flu Activity Not available.
METAR MHSC 262103Z AUTO 36018G23KT 9999 FEW028 OVC039 22/22 A3002 RMK AO2

More Conditions Fewer Conditions

10-Day Weather Forecast

Almanac

Astronomy

Nov. 26, 2014 Rise Set
Actual Time
Civil Twilight
Nautical Twilight
Astronomical Twilight
Moon
Length of Visible Light
Length of Day
Tomorrow will be .
, % of the Moon is Illuminated

Today's Extremes

Country Highs Country Lows

Community

WunderPhotos

Upload Photos

1,773,872 photos uploaded!

WunderBlogs® & News

Nearby

Air Quality

  Air Quality AQ Index Pollutant
Not available.

Snow Depth

Station Depth Elevation

Earthquake Activity

City Distance Mag. Time & Date
Minimum magnitude displayed is 2.5.

Coastal Water Temperatures

Place Temperature

Nearby Weather Stations